createdAt,value
2019-01-20T00:00:59.459Z,26.40
2019-01-20T00:01:59.632Z,28.40
2019-01-20T00:02:59.811Z,28.90
2019-01-20T00:04:00.029Z,28.10
2019-01-20T00:05:00.231Z,29.60
2019-01-20T00:06:00.282Z,28.60
2019-01-20T00:07:00.442Z,27.50
2019-01-20T00:08:00.621Z,28.40
2019-01-20T00:09:00.782Z,27.90
2019-01-20T00:10:00.931Z,27.80
2019-01-20T00:11:01.093Z,27.50
2019-01-20T00:12:01.306Z,26.70
2019-01-20T00:13:01.443Z,27.60
2019-01-20T00:14:01.607Z,27.90
2019-01-20T00:15:01.763Z,28.90
2019-01-20T00:16:01.938Z,27.90
2019-01-20T00:17:02.071Z,27.80
2019-01-20T00:18:02.265Z,29.40
2019-01-20T00:19:02.427Z,29.80
2019-01-20T00:20:02.646Z,29.30
2019-01-20T00:21:02.821Z,29.60
2019-01-20T00:22:02.885Z,31.30
2019-01-20T00:23:03.078Z,30.00
2019-01-20T00:24:03.243Z,30.50
2019-01-20T00:25:03.393Z,29.70
2019-01-20T00:26:03.563Z,29.70
2019-01-20T00:27:03.708Z,29.60
2019-01-20T00:28:03.879Z,30.00
2019-01-20T00:29:04.194Z,30.20
2019-01-20T00:30:04.206Z,31.30
2019-01-20T00:31:04.392Z,32.40
2019-01-20T00:32:04.526Z,31.50
2019-01-20T00:33:04.680Z,30.70
2019-01-20T00:34:04.861Z,32.40
2019-01-20T00:35:05.047Z,32.30
2019-01-20T00:36:05.213Z,33.60
2019-01-20T00:37:05.487Z,34.10
2019-01-20T00:38:05.500Z,32.80
2019-01-20T00:39:05.671Z,34.90
2019-01-20T00:40:05.864Z,33.20
2019-01-20T00:41:06.026Z,35.40
2019-01-20T00:42:06.169Z,34.10
2019-01-20T00:43:06.347Z,35.90
2019-01-20T00:44:06.478Z,34.30
2019-01-20T00:45:06.680Z,33.30
2019-01-20T00:46:06.821Z,33.20
2019-01-20T00:47:06.968Z,33.90
2019-01-20T00:48:07.147Z,33.60
2019-01-20T00:49:07.293Z,34.20
2019-01-20T00:50:07.451Z,33.50
2019-01-20T00:51:07.654Z,33.60
2019-01-20T00:52:07.820Z,33.30
2019-01-20T00:53:08.027Z,33.20
2019-01-20T00:54:08.147Z,34.00
2019-01-20T00:55:08.251Z,33.50
2019-01-20T00:56:08.413Z,33.10
2019-01-20T00:57:08.596Z,31.50
2019-01-20T00:58:08.759Z,31.90
2019-01-20T00:59:08.903Z,34.00
2019-01-20T01:00:09.073Z,33.70
2019-01-20T01:01:09.257Z,35.70
2019-01-20T01:02:09.492Z,33.00
2019-01-20T01:03:09.563Z,32.90
2019-01-20T01:04:09.715Z,32.90
2019-01-20T01:05:09.871Z,35.30
2019-01-20T01:06:10.043Z,33.60
2019-01-20T01:07:10.194Z,32.70
2019-01-20T01:08:10.355Z,32.90
2019-01-20T01:09:10.523Z,31.90
2019-01-20T01:10:10.840Z,31.00
2019-01-20T01:11:10.844Z,31.30
2019-01-20T01:12:10.993Z,32.70
2019-01-20T01:13:11.163Z,30.30
2019-01-20T01:14:11.350Z,33.00
2019-01-20T01:15:11.533Z,31.30
2019-01-20T01:16:11.934Z,30.70
2019-01-20T01:17:11.841Z,31.50
2019-01-20T01:18:12.078Z,30.70
2019-01-20T01:19:12.159Z,30.70
2019-01-20T01:20:12.315Z,30.80
2019-01-20T01:21:12.489Z,32.40
2019-01-20T01:22:12.646Z,31.50
2019-01-20T01:23:12.775Z,31.30
2019-01-20T01:24:12.976Z,30.20
2019-01-20T01:25:13.140Z,33.60
2019-01-20T01:26:13.349Z,31.70
2019-01-20T01:27:13.446Z,33.20
2019-01-20T01:28:13.610Z,33.50
2019-01-20T01:29:13.773Z,33.70
2019-01-20T01:30:13.927Z,33.60
2019-01-20T01:31:14.120Z,33.50
2019-01-20T01:32:14.274Z,35.60
2019-01-20T01:33:14.424Z,34.70
2019-01-20T01:34:14.636Z,33.50
2019-01-20T01:35:14.993Z,34.60
2019-01-20T01:36:14.926Z,34.20
2019-01-20T01:37:15.082Z,34.90
2019-01-20T01:38:15.227Z,34.40
2019-01-20T01:39:15.401Z,33.10
2019-01-20T01:40:15.543Z,34.60
2019-01-20T01:41:15.700Z,33.00
2019-01-20T01:42:15.901Z,33.80
2019-01-20T01:43:16.133Z,32.80
2019-01-20T01:44:16.206Z,33.60
2019-01-20T01:45:16.349Z,33.60
2019-01-20T01:46:16.524Z,33.00
2019-01-20T01:47:16.682Z,32.70
2019-01-20T01:48:16.843Z,30.60
2019-01-20T01:49:17.018Z,32.70
2019-01-20T01:50:17.202Z,33.10
2019-01-20T01:51:17.413Z,33.10
2019-01-20T01:52:17.479Z,33.20
2019-01-20T01:53:17.637Z,34.20
2019-01-20T01:54:17.817Z,33.50
2019-01-20T01:55:17.975Z,32.30
2019-01-20T01:56:18.121Z,34.70
2019-01-20T01:57:18.267Z,34.80
2019-01-20T01:58:18.442Z,34.00
2019-01-20T01:59:18.682Z,34.80
2019-01-20T02:00:18.758Z,33.90
2019-01-20T02:01:18.934Z,33.20
2019-01-20T02:02:19.058Z,35.10
2019-01-20T02:03:19.238Z,32.70
2019-01-20T02:04:19.419Z,33.50
2019-01-20T02:05:19.571Z,34.20
2019-01-20T02:06:19.751Z,34.80
2019-01-20T02:07:19.932Z,34.00
2019-01-20T02:08:19.941Z,34.50
2019-01-20T02:09:20.121Z,33.90
2019-01-20T02:10:20.283Z,34.30
2019-01-20T02:11:20.455Z,34.90
2019-01-20T02:12:20.640Z,32.80
2019-01-20T02:13:20.741Z,35.80
2019-01-20T02:14:20.932Z,32.80
2019-01-20T02:15:21.358Z,32.70
2019-01-20T02:16:21.377Z,33.20
2019-01-20T02:17:21.438Z,32.00
2019-01-20T02:18:21.600Z,30.50
2019-01-20T02:19:21.796Z,33.00
2019-01-20T02:20:21.939Z,31.60
2019-01-20T02:21:22.097Z,33.00
2019-01-20T02:22:22.323Z,32.00
2019-01-20T02:23:22.425Z,32.60
2019-01-20T02:24:22.701Z,33.10
2019-01-20T02:25:22.745Z,31.60
2019-01-20T02:26:22.903Z,31.50
2019-01-20T02:27:23.075Z,30.40
2019-01-20T02:28:23.221Z,32.30
2019-01-20T02:29:23.414Z,31.40
2019-01-20T02:30:23.572Z,31.50
2019-01-20T02:31:23.726Z,31.80
2019-01-20T02:32:23.990Z,31.10
2019-01-20T02:33:24.043Z,31.40
2019-01-20T02:34:24.246Z,31.30
2019-01-20T02:35:24.398Z,32.10
2019-01-20T02:36:24.563Z,32.90
2019-01-20T02:37:24.736Z,32.90
2019-01-20T02:38:24.881Z,35.60
2019-01-20T02:39:25.071Z,35.70
2019-01-20T02:40:25.244Z,33.80
2019-01-20T02:41:25.366Z,33.70
2019-01-20T02:42:25.533Z,33.40
2019-01-20T02:43:25.669Z,35.40
2019-01-20T02:44:25.856Z,33.30
2019-01-20T02:45:26.025Z,33.00
2019-01-20T02:46:26.162Z,34.30
2019-01-20T02:47:26.336Z,34.20
2019-01-20T02:48:26.531Z,33.60
2019-01-20T02:49:26.648Z,34.40
2019-01-20T02:50:26.805Z,34.50
2019-01-20T02:51:26.969Z,33.20
2019-01-20T02:52:27.147Z,33.60
2019-01-20T02:53:27.291Z,34.50
2019-01-20T02:54:27.467Z,35.50
2019-01-20T02:55:27.627Z,34.50
2019-01-20T02:56:28.029Z,32.80
2019-01-20T02:57:28.035Z,34.60
2019-01-20T02:58:28.106Z,35.40
2019-01-20T02:59:28.278Z,34.80
2019-01-20T03:00:28.450Z,33.60
2019-01-20T03:01:28.605Z,35.50
2019-01-20T03:02:28.749Z,36.20
2019-01-20T03:03:28.903Z,35.80
2019-01-20T03:04:29.100Z,35.30
2019-01-20T03:05:29.358Z,36.00
2019-01-20T03:06:29.392Z,36.60
2019-01-20T03:07:29.561Z,35.90
2019-01-20T03:08:29.715Z,36.00
2019-01-20T03:09:29.921Z,37.10
2019-01-20T03:10:30.050Z,33.50
2019-01-20T03:11:30.217Z,35.40
2019-01-20T03:12:30.391Z,35.80
2019-01-20T03:13:30.615Z,37.00
2019-01-20T03:14:30.704Z,36.70
2019-01-20T03:15:30.842Z,36.30
2019-01-20T03:16:31.005Z,36.90
2019-01-20T03:17:31.174Z,36.60
2019-01-20T03:18:31.323Z,35.20
2019-01-20T03:19:31.506Z,37.10
2019-01-20T03:20:31.647Z,36.70
2019-01-20T03:21:31.863Z,37.10
2019-01-20T03:22:31.964Z,38.70
2019-01-20T03:23:32.115Z,37.80
2019-01-20T03:24:32.258Z,38.40
2019-01-20T03:25:32.415Z,38.10
2019-01-20T03:26:32.610Z,38.40
2019-01-20T03:27:32.776Z,36.20
2019-01-20T03:28:32.921Z,38.60
2019-01-20T03:29:33.118Z,36.60
2019-01-20T03:30:33.281Z,37.70
2019-01-20T03:31:33.439Z,36.70
2019-01-20T03:32:33.594Z,36.20
2019-01-20T03:33:33.738Z,34.80
2019-01-20T03:34:33.896Z,37.10
2019-01-20T03:35:34.076Z,36.60
2019-01-20T03:36:34.237Z,37.40
2019-01-20T03:37:34.438Z,36.30
2019-01-20T03:38:34.664Z,38.80
2019-01-20T03:39:34.731Z,36.90
2019-01-20T03:40:34.881Z,37.60
2019-01-20T03:41:38.978Z,39.60
2019-01-20T03:42:35.238Z,38.10
2019-01-20T03:43:35.383Z,37.50
2019-01-20T03:44:35.554Z,37.70
2019-01-20T03:45:35.718Z,38.10
2019-01-20T03:46:35.987Z,37.50
2019-01-20T03:47:36.056Z,36.80
2019-01-20T03:48:36.204Z,37.00
2019-01-20T03:49:36.380Z,37.50
2019-01-20T03:50:36.552Z,38.30
2019-01-20T03:51:36.691Z,38.40
2019-01-20T03:52:36.870Z,39.20
2019-01-20T03:53:37.014Z,37.50
2019-01-20T03:54:37.227Z,39.60
2019-01-20T03:55:37.335Z,39.30
2019-01-20T03:56:37.489Z,39.20
2019-01-20T03:57:37.650Z,40.40
2019-01-20T03:58:37.795Z,40.60
2019-01-20T03:59:37.991Z,40.40
2019-01-20T04:00:38.147Z,39.50
2019-01-20T04:01:38.294Z,37.90
2019-01-20T04:02:38.521Z,40.20
2019-01-20T04:03:38.577Z,39.50
2019-01-20T04:04:38.772Z,38.50
2019-01-20T04:05:38.948Z,41.20
2019-01-20T04:06:39.093Z,40.40
2019-01-20T04:07:39.285Z,40.50
2019-01-20T04:08:39.421Z,40.70
2019-01-20T04:09:39.565Z,39.50
2019-01-20T04:10:39.774Z,42.50
2019-01-20T04:11:39.955Z,39.50
2019-01-20T04:12:40.089Z,40.80
2019-01-20T04:13:40.217Z,38.70
2019-01-20T04:14:40.387Z,38.60
2019-01-20T04:15:40.566Z,40.50
2019-01-20T04:16:40.721Z,40.00
2019-01-20T04:17:40.919Z,41.30
2019-01-20T04:18:41.053Z,39.90
2019-01-20T04:19:41.288Z,39.70
2019-01-20T04:20:41.382Z,41.90
2019-01-20T04:21:41.524Z,39.40
2019-01-20T04:22:41.715Z,40.50
2019-01-20T04:23:41.849Z,41.30
2019-01-20T04:24:42.001Z,39.70
2019-01-20T04:25:42.163Z,38.90
2019-01-20T04:26:42.397Z,41.10
2019-01-20T04:27:42.608Z,39.60
2019-01-20T04:28:42.640Z,39.80
2019-01-20T04:29:42.798Z,39.20
2019-01-20T04:30:42.952Z,41.60
2019-01-20T04:31:43.121Z,41.10
2019-01-20T04:32:43.343Z,41.40
2019-01-20T04:33:43.458Z,40.60
2019-01-20T04:34:43.623Z,42.70
2019-01-20T04:35:44.053Z,41.90
2019-01-20T04:36:43.905Z,40.40
2019-01-20T04:37:44.127Z,42.10
2019-01-20T04:38:44.264Z,41.30
2019-01-20T04:39:44.416Z,39.90
2019-01-20T04:40:44.605Z,41.30
2019-01-20T04:41:44.747Z,40.20
2019-01-20T04:42:44.900Z,40.00
2019-01-20T04:43:45.088Z,39.60
2019-01-20T04:44:45.225Z,40.20
2019-01-20T04:45:45.398Z,40.60
2019-01-20T04:46:45.551Z,40.30
2019-01-20T04:47:45.721Z,41.10
2019-01-20T04:48:45.868Z,40.70
2019-01-20T04:49:46.043Z,41.80
2019-01-20T04:50:46.239Z,43.40
2019-01-20T04:51:46.425Z,41.50
2019-01-20T04:52:46.651Z,42.40
2019-01-20T04:53:46.728Z,41.60
2019-01-20T04:54:46.882Z,43.60
2019-01-20T04:55:47.080Z,44.20
2019-01-20T04:56:47.226Z,43.20
2019-01-20T04:57:47.403Z,42.30
2019-01-20T04:58:47.568Z,43.50
2019-01-20T04:59:47.697Z,46.00
2019-01-20T05:00:47.992Z,42.90
2019-01-20T05:01:48.022Z,43.80
2019-01-20T05:02:48.202Z,42.50
2019-01-20T05:03:48.361Z,41.80
2019-01-20T05:04:48.492Z,42.10
2019-01-20T05:05:48.685Z,41.00
2019-01-20T05:06:48.863Z,41.10
2019-01-20T05:07:49.025Z,40.60
2019-01-20T05:08:49.235Z,41.50
2019-01-20T05:09:49.304Z,42.20
2019-01-20T05:10:49.510Z,40.90
2019-01-20T05:11:49.658Z,41.00
2019-01-20T05:12:49.838Z,40.80
2019-01-20T05:13:50.006Z,40.30
2019-01-20T05:14:50.143Z,40.40
2019-01-20T05:15:50.325Z,41.00
2019-01-20T05:16:50.502Z,42.80
2019-01-20T05:17:50.605Z,41.70
2019-01-20T05:18:50.793Z,41.40
2019-01-20T05:19:50.936Z,41.60
2019-01-20T05:20:51.123Z,42.60
2019-01-20T05:21:51.253Z,43.10
2019-01-20T05:22:51.399Z,41.40
2019-01-20T05:23:51.594Z,42.10
2019-01-20T05:24:51.798Z,45.00
2019-01-20T05:25:51.971Z,44.40
2019-01-20T05:26:52.095Z,45.50
2019-01-20T05:27:52.214Z,42.50
2019-01-20T05:28:52.398Z,45.20
2019-01-20T05:29:52.554Z,42.90
2019-01-20T05:30:52.727Z,44.00
2019-01-20T05:31:52.891Z,42.80
2019-01-20T05:32:53.043Z,45.90
2019-01-20T05:33:53.316Z,42.60
2019-01-20T05:34:53.354Z,46.40
2019-01-20T05:35:53.539Z,43.00
2019-01-20T05:36:53.698Z,42.70
2019-01-20T05:37:53.840Z,45.10
2019-01-20T05:38:54.002Z,44.90
2019-01-20T05:39:54.158Z,44.10
2019-01-20T05:40:54.335Z,44.70
2019-01-20T05:41:54.964Z,44.00
2019-01-20T05:42:54.622Z,42.90
2019-01-20T05:43:54.821Z,45.50
2019-01-20T05:44:54.976Z,44.60
2019-01-20T05:45:55.126Z,44.90
2019-01-20T05:46:55.304Z,43.90
2019-01-20T05:47:55.471Z,45.00
2019-01-20T05:48:55.626Z,42.00
2019-01-20T05:49:55.816Z,43.30
2019-01-20T05:50:55.906Z,44.10
2019-01-20T05:51:56.101Z,43.40
2019-01-20T05:52:56.269Z,44.50
2019-01-20T05:53:56.440Z,43.90
2019-01-20T05:54:56.574Z,43.40
2019-01-20T05:55:56.745Z,41.70
2019-01-20T05:56:56.950Z,46.20
2019-01-20T05:57:57.144Z,42.80
2019-01-20T05:58:57.257Z,42.60
2019-01-20T05:59:57.403Z,43.50
2019-01-20T06:00:57.546Z,43.80
2019-01-20T06:01:57.754Z,44.10
2019-01-20T06:02:57.893Z,43.60
2019-01-20T06:03:58.068Z,43.80
2019-01-20T06:04:58.213Z,43.40
2019-01-20T06:05:58.398Z,45.10
2019-01-20T06:06:58.614Z,42.50
2019-01-20T06:07:58.711Z,42.00
2019-01-20T06:08:58.938Z,44.30
2019-01-20T06:09:59.020Z,43.00
2019-01-20T06:10:59.180Z,42.80
2019-01-20T06:11:59.355Z,43.30
2019-01-20T06:12:59.521Z,43.60
2019-01-20T06:13:59.701Z,41.90
2019-01-20T06:15:00.295Z,42.00
2019-01-20T06:16:00.003Z,43.10
2019-01-20T06:17:00.166Z,40.70
2019-01-20T06:18:00.341Z,41.70
2019-01-20T06:19:00.514Z,41.90
2019-01-20T06:20:00.666Z,41.50
2019-01-20T06:21:00.830Z,44.00
2019-01-20T06:22:01.010Z,41.00
2019-01-20T06:23:01.308Z,41.40
2019-01-20T06:24:01.309Z,40.00
2019-01-20T06:25:01.500Z,41.80
2019-01-20T06:26:01.609Z,43.00
2019-01-20T06:27:01.815Z,42.10
2019-01-20T06:28:01.948Z,43.50
2019-01-20T06:31:45.768Z,42.20
2019-01-20T06:32:28.375Z,42.40
2019-01-20T06:33:28.612Z,42.60
2019-01-20T06:34:28.683Z,41.00
2019-01-20T06:35:28.863Z,43.90
2019-01-20T06:39:08.746Z,41.20
2019-01-20T06:39:53.990Z,43.80
2019-01-20T06:40:54.154Z,43.00
2019-01-20T06:41:54.343Z,43.00
2019-01-20T06:43:01.213Z,40.00
2019-01-20T06:43:55.650Z,43.00
2019-01-20T06:44:54.800Z,42.90
2019-01-20T06:45:54.952Z,42.70
2019-01-20T06:46:55.164Z,41.90
2019-01-20T06:47:55.327Z,40.40
2019-01-20T06:48:55.477Z,41.40
2019-01-20T06:49:55.627Z,41.30
2019-01-20T06:50:55.814Z,43.20
2019-01-20T06:51:55.923Z,42.10
2019-01-20T06:52:56.121Z,42.60
2019-01-20T06:53:56.276Z,40.90
2019-01-20T06:54:56.420Z,41.40
2019-01-20T06:55:56.575Z,40.90
2019-01-20T06:56:56.761Z,41.20
2019-01-20T06:57:56.889Z,41.90
2019-01-20T06:58:57.104Z,41.90
2019-01-20T06:59:57.319Z,43.40
2019-01-20T07:00:57.387Z,41.00
2019-01-20T07:01:57.559Z,41.50
2019-01-20T07:02:57.723Z,42.20
2019-01-20T07:03:57.895Z,40.40
2019-01-20T07:04:58.036Z,39.70
2019-01-20T07:05:58.194Z,40.10
2019-01-20T07:06:58.373Z,39.30
2019-01-20T07:07:58.646Z,39.30
2019-01-20T07:08:58.689Z,39.60
2019-01-20T07:09:58.836Z,41.20
2019-01-20T07:10:59.003Z,42.90
2019-01-20T07:11:59.182Z,42.10
2019-01-20T07:12:59.388Z,40.20
2019-01-20T07:13:59.517Z,41.40
2019-01-20T07:14:59.642Z,43.50
2019-01-20T07:15:59.910Z,44.00
2019-01-20T07:16:59.988Z,42.90
2019-01-20T07:18:00.136Z,68.10
2019-01-20T07:19:00.330Z,45.90
2019-01-20T07:20:00.528Z,44.20
2019-01-20T07:21:00.620Z,41.60
2019-01-20T07:22:00.801Z,42.70
2019-01-20T07:23:00.968Z,41.80
2019-01-20T07:24:01.176Z,42.90
2019-01-20T07:25:01.233Z,43.50
2019-01-20T07:26:01.413Z,43.30
2019-01-20T07:27:01.607Z,42.30
2019-01-20T07:28:01.751Z,43.00
2019-01-20T07:29:01.924Z,44.10
2019-01-20T07:30:02.085Z,42.10
2019-01-20T07:31:02.231Z,41.50
2019-01-20T07:32:02.436Z,40.60
2019-01-20T07:33:02.650Z,40.90
2019-01-20T07:34:02.755Z,42.60
2019-01-20T07:35:02.939Z,43.50
2019-01-20T07:36:03.082Z,42.90
2019-01-20T07:37:03.259Z,41.30
2019-01-20T07:38:03.431Z,42.30
2019-01-20T07:39:03.584Z,40.80
2019-01-20T07:40:03.769Z,40.80
2019-01-20T07:41:04.012Z,41.00
2019-01-20T07:42:04.081Z,40.50
2019-01-20T07:43:04.272Z,41.40
2019-01-20T07:44:04.400Z,41.60
2019-01-20T07:45:04.577Z,42.70
2019-01-20T07:46:04.724Z,43.30
2019-01-20T07:47:04.898Z,42.90
2019-01-20T07:48:05.060Z,41.00
2019-01-20T07:49:05.274Z,41.90
2019-01-20T07:50:05.376Z,41.60
2019-01-20T07:51:05.521Z,42.50
2019-01-20T07:52:05.705Z,41.80
2019-01-20T07:53:05.989Z,41.90
2019-01-20T07:54:06.021Z,40.00
2019-01-20T07:55:06.420Z,40.80
2019-01-20T07:56:06.333Z,40.30
2019-01-20T07:57:06.569Z,41.80
2019-01-20T07:58:06.633Z,40.20
2019-01-20T07:59:06.799Z,42.80
2019-01-20T08:00:06.982Z,40.10
2019-01-20T08:01:07.132Z,41.70
2019-01-20T08:02:07.301Z,41.20
2019-01-20T08:03:07.448Z,40.60
2019-01-20T08:04:07.634Z,40.80
2019-01-20T08:05:07.802Z,41.10
2019-01-20T08:06:07.947Z,41.20
2019-01-20T08:07:08.114Z,41.20
2019-01-20T08:08:08.262Z,40.10
2019-01-20T08:09:08.431Z,41.30
2019-01-20T08:10:08.584Z,39.60
2019-01-20T08:11:08.726Z,39.30
2019-01-20T08:12:08.927Z,41.60
2019-01-20T08:13:09.097Z,38.70
2019-01-20T08:14:09.396Z,40.50
2019-01-20T08:15:09.401Z,39.60
2019-01-20T08:16:09.562Z,39.00
2019-01-20T08:17:11.301Z,40.50
2019-01-20T08:18:09.884Z,39.70
2019-01-20T08:19:10.081Z,40.40
2019-01-20T08:20:10.220Z,40.70
2019-01-20T08:21:10.351Z,39.40
2019-01-20T08:22:10.676Z,40.80
2019-01-20T08:23:10.705Z,40.60
2019-01-20T08:24:10.873Z,40.40
2019-01-20T08:25:11.047Z,42.10
2019-01-20T08:26:11.179Z,41.40
2019-01-20T08:27:11.368Z,41.50
2019-01-20T08:28:11.515Z,41.30
2019-01-20T08:29:12.394Z,41.20
2019-01-20T08:30:11.882Z,40.80
2019-01-20T08:31:11.955Z,43.20
2019-01-20T08:32:12.187Z,44.70
2019-01-20T08:33:12.324Z,42.60
2019-01-20T08:34:12.495Z,41.20
2019-01-20T08:35:12.675Z,41.50
2019-01-20T08:36:12.811Z,41.40
2019-01-20T08:37:12.970Z,41.40
2019-01-20T08:38:13.170Z,42.80
2019-01-20T08:39:13.299Z,41.20
2019-01-20T08:40:13.481Z,42.50
2019-01-20T08:41:13.629Z,41.20
2019-01-20T08:42:13.792Z,41.50
2019-01-20T08:43:13.954Z,40.20
2019-01-20T08:44:14.123Z,40.90
2019-01-20T08:45:14.309Z,41.10
2019-01-20T08:46:14.509Z,40.10
2019-01-20T08:47:14.711Z,40.50
2019-01-20T08:48:14.776Z,40.60
2019-01-20T08:49:14.945Z,40.90
2019-01-20T08:50:15.106Z,41.40
2019-01-20T08:51:15.260Z,42.10
2019-01-20T08:52:15.419Z,44.50
2019-01-20T08:53:15.603Z,42.80
2019-01-20T08:54:15.754Z,41.80
2019-01-20T08:55:16.028Z,46.20
2019-01-20T08:56:16.063Z,43.70
2019-01-20T08:57:16.218Z,42.80
2019-01-20T08:58:16.405Z,44.10
2019-01-20T08:59:16.612Z,40.90
2019-01-20T09:00:16.733Z,40.80
2019-01-20T09:01:16.925Z,41.50
2019-01-20T09:02:17.062Z,41.10
2019-01-20T09:03:17.300Z,46.40
2019-01-20T09:04:17.372Z,42.30
2019-01-20T09:05:17.533Z,41.80
2019-01-20T09:06:17.682Z,41.20
2019-01-20T09:07:17.856Z,41.50
2019-01-20T09:08:18.032Z,41.90
2019-01-20T09:09:18.184Z,41.20
2019-01-20T09:10:18.355Z,40.00
2019-01-20T09:11:18.541Z,43.00
2019-01-20T09:12:18.642Z,41.90
2019-01-20T09:13:18.821Z,42.30
2019-01-20T09:14:18.975Z,41.80
2019-01-20T09:15:19.144Z,41.70
2019-01-20T09:16:19.293Z,41.50
2019-01-20T09:17:19.438Z,42.00
2019-01-20T09:18:19.632Z,40.90
2019-01-20T09:19:19.833Z,45.20
2019-01-20T09:20:20.054Z,40.50
2019-01-20T09:21:20.103Z,45.30
2019-01-20T09:22:20.251Z,40.80
2019-01-20T09:23:20.440Z,43.20
2019-01-20T09:24:20.616Z,43.80
2019-01-20T09:25:20.765Z,43.80
2019-01-20T09:26:20.969Z,43.20
2019-01-20T09:27:21.087Z,44.00
2019-01-20T09:28:21.409Z,42.80
2019-01-20T09:32:15.842Z,40.40
2019-01-20T09:32:47.897Z,42.20
2019-01-20T09:33:47.846Z,44.90
2019-01-20T09:35:16.949Z,42.60
2019-01-20T09:35:48.171Z,42.40
2019-01-20T09:36:48.337Z,45.00
2019-01-20T09:37:48.531Z,43.20
2019-01-20T09:38:48.613Z,41.00
2019-01-20T09:39:48.814Z,42.30
2019-01-20T09:40:48.934Z,42.00
2019-01-20T09:41:49.125Z,41.60
2019-01-20T09:42:49.311Z,40.50
2019-01-20T09:43:49.469Z,42.60
2019-01-20T09:44:49.686Z,41.60
2019-01-20T09:45:49.805Z,44.80
2019-01-20T09:46:50.085Z,44.50
2019-01-20T09:47:50.107Z,44.70
2019-01-20T09:48:50.283Z,44.20
2019-01-20T09:49:50.517Z,43.30
2019-01-20T09:50:50.597Z,41.50
2019-01-20T09:51:50.776Z,43.00
2019-01-20T09:52:50.944Z,41.40
2019-01-20T09:53:51.066Z,42.80
2019-01-20T09:54:51.416Z,42.80
2019-01-20T09:55:51.415Z,42.20
2019-01-20T09:56:51.600Z,42.40
2019-01-20T09:57:51.723Z,41.80
2019-01-20T09:58:51.871Z,45.20
2019-01-20T09:59:52.149Z,45.60
2019-01-20T10:00:52.269Z,50.70
2019-01-20T10:01:52.404Z,45.50
2019-01-20T10:02:52.668Z,48.40
2019-01-20T10:03:52.674Z,47.90
2019-01-20T10:04:52.882Z,44.70
2019-01-20T10:05:53.073Z,43.30
2019-01-20T10:06:53.229Z,43.30
2019-01-20T10:07:53.351Z,45.00
2019-01-20T10:08:56.659Z,46.40
2019-01-20T10:09:53.690Z,45.80
2019-01-20T10:10:53.850Z,47.50
2019-01-20T10:11:53.996Z,42.10
2019-01-20T10:12:54.145Z,40.70
2019-01-20T10:13:54.948Z,42.90
2019-01-20T10:14:54.487Z,44.60
2019-01-20T10:15:54.649Z,42.50
2019-01-20T10:16:54.791Z,42.20
2019-01-20T10:17:54.948Z,38.30
2019-01-20T10:18:55.167Z,42.10
2019-01-20T10:19:55.309Z,39.70
2019-01-20T10:20:55.477Z,37.40
2019-01-20T10:21:55.638Z,37.70
2019-01-20T10:22:55.765Z,37.40
2019-01-20T10:23:55.941Z,39.10
2019-01-20T10:24:56.119Z,38.40
2019-01-20T10:25:56.278Z,39.30
2019-01-20T10:26:56.494Z,37.60
2019-01-20T10:27:56.725Z,38.00
2019-01-20T10:28:56.747Z,36.90
2019-01-20T10:29:56.926Z,36.20
2019-01-20T10:30:57.081Z,37.50
2019-01-20T10:31:57.249Z,37.70
2019-01-20T10:32:57.394Z,39.60
2019-01-20T10:33:57.534Z,40.00
2019-01-20T10:34:57.726Z,39.00
2019-01-20T10:35:58.032Z,37.60
2019-01-20T10:36:58.055Z,40.30
2019-01-20T10:37:58.188Z,36.50
2019-01-20T10:38:58.366Z,37.50
2019-01-20T10:39:58.562Z,38.50
2019-01-20T10:40:58.937Z,37.90
2019-01-20T10:41:58.850Z,40.80
2019-01-20T10:42:59.027Z,39.40
2019-01-20T10:44:02.293Z,36.80
2019-01-20T10:44:59.351Z,37.70
2019-01-20T10:45:59.509Z,36.70
2019-01-20T10:46:59.663Z,40.00
2019-01-20T10:47:59.842Z,34.80
2019-01-20T10:49:00.002Z,36.50
2019-01-20T10:50:00.176Z,37.20
2019-01-20T10:51:00.333Z,37.40
2019-01-20T10:52:00.538Z,35.60
2019-01-20T10:53:00.556Z,37.70
2019-01-20T10:54:00.740Z,36.90
2019-01-20T10:55:00.908Z,37.80
2019-01-20T10:56:01.097Z,36.60
2019-01-20T10:57:01.208Z,37.00
2019-01-20T10:58:01.397Z,35.20
2019-01-20T10:59:01.531Z,36.70
2019-01-20T11:00:01.729Z,34.80
2019-01-20T11:01:01.988Z,36.80
2019-01-20T11:02:02.094Z,35.10
2019-01-20T11:03:02.268Z,36.10
2019-01-20T11:04:02.411Z,34.90
2019-01-20T11:05:03.505Z,36.80
2019-01-20T11:06:02.714Z,34.50
2019-01-20T11:07:02.897Z,34.20
2019-01-20T11:08:03.075Z,36.30
2019-01-20T11:09:03.342Z,35.60
2019-01-20T11:10:03.378Z,35.40
2019-01-20T11:11:03.522Z,34.50
2019-01-20T11:12:03.938Z,33.80
2019-01-20T11:13:03.884Z,34.60
2019-01-20T11:14:09.473Z,35.20
2019-01-20T11:15:05.204Z,33.70
2019-01-20T11:16:04.348Z,34.10
2019-01-20T11:17:04.543Z,34.10
2019-01-20T11:18:04.671Z,32.90
2019-01-20T11:19:04.819Z,33.70
2019-01-20T11:20:04.998Z,34.80
2019-01-20T11:21:05.133Z,36.00
2019-01-20T11:22:05.314Z,35.20
2019-01-20T11:23:05.484Z,34.10
2019-01-20T11:24:05.624Z,33.00
2019-01-20T11:25:05.855Z,34.00
2019-01-20T11:26:05.935Z,33.40
2019-01-20T11:27:06.121Z,32.40
2019-01-20T11:28:06.262Z,32.90
2019-01-20T11:29:06.414Z,33.40
2019-01-20T11:30:06.586Z,34.40
2019-01-20T11:31:06.738Z,35.10
2019-01-20T11:32:06.922Z,34.80
2019-01-20T11:33:07.092Z,32.80
2019-01-20T11:34:07.263Z,33.50
2019-01-20T11:35:07.388Z,32.20
2019-01-20T11:36:07.537Z,33.70
2019-01-20T11:37:07.700Z,33.00
2019-01-20T11:38:07.877Z,31.40
2019-01-20T11:39:08.002Z,33.40
2019-01-20T11:40:08.190Z,30.40
2019-01-20T11:41:08.370Z,31.20
2019-01-20T11:42:08.638Z,33.00
2019-01-20T11:43:08.683Z,31.80
2019-01-20T11:44:08.828Z,30.00
2019-01-20T11:45:08.997Z,31.90
2019-01-20T11:46:09.158Z,31.70
2019-01-20T11:47:09.344Z,30.90
2019-01-20T11:48:09.496Z,29.40
2019-01-20T11:49:09.649Z,28.70
2019-01-20T11:50:09.876Z,29.20
2019-01-20T11:51:09.975Z,29.60
2019-01-20T11:52:10.156Z,30.70
2019-01-20T11:53:10.318Z,30.20
2019-01-20T11:54:10.462Z,29.30
2019-01-20T11:55:10.606Z,29.60
2019-01-20T11:56:10.797Z,29.70
2019-01-20T11:57:10.969Z,30.80
2019-01-20T11:58:11.171Z,28.20
2019-01-20T11:59:11.260Z,30.60
2019-01-20T12:00:11.416Z,29.50
2019-01-20T12:01:11.599Z,28.70
2019-01-20T12:02:11.775Z,28.60
2019-01-20T12:03:11.923Z,28.20
2019-01-20T12:04:12.068Z,28.10
2019-01-20T12:05:12.232Z,27.20
2019-01-20T12:06:12.427Z,27.80
2019-01-20T12:07:12.617Z,26.60
2019-01-20T12:08:12.749Z,28.60
2019-01-20T12:09:12.897Z,27.40
2019-01-20T12:10:13.064Z,28.10
2019-01-20T12:11:13.236Z,29.50
2019-01-20T12:12:13.392Z,28.30
2019-01-20T12:13:13.540Z,27.60
2019-01-20T12:14:13.725Z,29.00
2019-01-20T12:15:13.975Z,25.70
2019-01-20T12:16:14.039Z,27.20
2019-01-20T12:17:14.193Z,26.60
2019-01-20T12:18:14.362Z,28.40
2019-01-20T12:19:14.495Z,28.80
2019-01-20T12:20:14.668Z,28.90
2019-01-20T12:21:14.916Z,31.10
2019-01-20T12:22:15.008Z,26.50
2019-01-20T12:23:15.220Z,26.10
2019-01-20T12:24:15.310Z,27.20
2019-01-20T12:25:15.468Z,26.60
2019-01-20T12:26:15.650Z,25.70
2019-01-20T12:27:15.871Z,26.60
2019-01-20T12:28:15.954Z,25.90
2019-01-20T12:29:16.110Z,26.50
2019-01-20T12:30:16.290Z,26.30
2019-01-20T12:31:16.728Z,25.20
2019-01-20T12:32:16.618Z,23.60
2019-01-20T12:33:17.177Z,27.20
2019-01-20T12:34:16.908Z,23.80
2019-01-20T12:35:17.083Z,23.20
2019-01-20T12:36:17.258Z,25.60
2019-01-20T12:37:17.430Z,24.70
2019-01-20T12:38:17.585Z,24.80
2019-01-20T12:39:17.737Z,22.20
2019-01-20T12:40:17.846Z,22.70
2019-01-20T12:41:18.045Z,23.00
2019-01-20T12:42:18.207Z,23.70
2019-01-20T12:43:18.375Z,23.00
2019-01-20T12:44:18.520Z,24.10
2019-01-20T12:45:18.678Z,25.40
2019-01-20T12:46:18.842Z,25.20
2019-01-20T12:47:19.069Z,25.60
2019-01-20T12:48:19.328Z,24.10
2019-01-20T12:49:19.342Z,24.80
2019-01-20T12:50:19.501Z,26.10
2019-01-20T12:51:19.664Z,23.50
2019-01-20T12:52:20.076Z,24.10
2019-01-20T12:53:19.983Z,23.70
2019-01-20T12:54:20.149Z,23.60
2019-01-20T12:55:20.327Z,24.50
2019-01-20T12:56:20.587Z,24.10
2019-01-20T12:57:20.631Z,25.20
2019-01-20T12:58:20.804Z,25.60
2019-01-20T12:59:20.962Z,25.90
2019-01-20T13:00:21.125Z,27.80
2019-01-20T13:01:21.320Z,27.30
2019-01-20T13:02:21.439Z,28.10